Aérodrome :
LOGIN :

S'inscrire | Disclaimer

   EN    FR    IT 

 










Légende :    VFR   VFR Marginal   IFR   IFR Intensif   IFR Très Intensif
Visi : 
Plafond : 
>= 8 km
>= 3000ft
5 à 8 km
1000 à 3000 ft
1500m à 5 km
500 à 1000 ft
800 à 1500m
200 à 500 ft
< 800m
< 200 ft
Symboles :   Orages  Brouillard  Fortes neiges  Fortes précipitations  Vent > 20 kt
SIGMETs :   Divers  Orages  Givrage  Turbulence  Onde Orograph.  Cendres Volcan.






- Altitude de l'aérodrome : 699 ft
- Code IATA : PAD


EDLP - Paderborn Lippstadt

METAR N/A
TAF TAF EDLP
Valide du 23 à 18h jusqu'au 24 à 18h UTC


231700Z 2318/2418 13005KT 9999 SCT040
BECMG 2323/2402 3000 -SNRA BR BKN012
BECMG 2402/2405 VRB03KT 1200 SN BR BKN003
TEMPO 2406/2411 0600 FZFG OVC001
BECMG 2406/2409 28009KT
PROB30
TEMPO 2409/2411 27015G25KT +SN
BECMG 2411/2415 4000 BR BKN006
BECMG 2415/2418 6000



MET'MAP, la Météo Aéronautique d'un coup d'oeil ! - Copyright ORBIFLY Décembre 2007 - Disclaimer

ORBIFLY MET'MAP TEAM :

Programmation & Développement : Alexandra Zaïnal
Sur une idée originale de : Baudouin d'Aumeries
Assistance à la programmation : Marc-Olivier Méhu
Soutien technique & logistique : Manuel Goepfert

Contact : metmap@orbifly.com




SOURCES & CREDITS :

   NOAA